sensor_id;sensor_type;location;lat;lon;timestamp;pressure;altitude;pressure_sealevel;temperature;humidity
23643;BME280;11998;55.788;37.572;2023-08-07T00:00:25;98596.28;;;85.55;14.82
23643;BME280;11998;55.788;37.572;2023-08-07T00:01:25;98608.66;;;86.20;14.77
23643;BME280;11998;55.788;37.572;2023-08-07T00:02:26;98609.94;;;86.24;14.77
23643;BME280;11998;55.788;37.572;2023-08-07T00:03:26;98610.41;;;86.02;14.87
23643;BME280;11998;55.788;37.572;2023-08-07T00:04:27;98611.69;;;85.80;15.08
23643;BME280;11998;55.788;37.572;2023-08-07T00:05:28;98606.84;;;86.03;14.82
23643;BME280;11998;55.788;37.572;2023-08-07T00:06:30;98606.78;;;85.43;14.76
23643;BME280;11998;55.788;37.572;2023-08-07T00:07:30;98603.06;;;86.16;14.66
23643;BME280;11998;55.788;37.572;2023-08-07T00:08:31;98613.16;;;86.13;14.84
23643;BME280;11998;55.788;37.572;2023-08-07T00:09:32;98603.81;;;84.52;14.97
23643;BME280;11998;55.788;37.572;2023-08-07T00:10:32;98608.34;;;85.04;14.96
23643;BME280;11998;55.788;37.572;2023-08-07T00:11:33;98614.72;;;86.27;14.65
23643;BME280;11998;55.788;37.572;2023-08-07T00:12:33;98603.25;;;85.71;14.96
23643;BME280;11998;55.788;37.572;2023-08-07T00:13:34;98610.50;;;86.23;14.75
23643;BME280;11998;55.788;37.572;2023-08-07T00:14:34;98605.88;;;85.61;14.72
23643;BME280;11998;55.788;37.572;2023-08-07T00:15:37;98612.47;;;85.14;14.82
23643;BME280;11998;55.788;37.572;2023-08-07T00:16:40;98607.00;;;85.58;14.81
23643;BME280;11998;55.788;37.572;2023-08-07T00:17:41;98610.41;;;86.02;14.81
23643;BME280;11998;55.788;37.572;2023-08-07T00:18:42;98614.41;;;84.80;14.78
23643;BME280;11998;55.788;37.572;2023-08-07T00:19:42;98612.72;;;84.84;15.10
23643;BME280;11998;55.788;37.572;2023-08-07T00:20:43;98602.06;;;84.25;15.01
23643;BME280;11998;55.788;37.572;2023-08-07T00:21:43;98614.03;;;85.02;15.08
23643;BME280;11998;55.788;37.572;2023-08-07T00:22:44;98614.03;;;85.02;14.76
23643;BME280;11998;55.788;37.572;2023-08-07T00:23:44;98609.97;;;85.98;14.71
23643;BME280;11998;55.788;37.572;2023-08-07T00:24:45;98613.53;;;84.98;14.79
23643;BME280;11998;55.788;37.572;2023-08-07T00:25:45;98617.66;;;84.95;14.97
23643;BME280;11998;55.788;37.572;2023-08-07T00:26:45;98608.69;;;85.14;14.81
23643;BME280;11998;55.788;37.572;2023-08-07T00:27:46;98592.41;;;82.72;15.15
23643;BME280;11998;55.788;37.572;2023-08-07T00:28:46;98602.03;;;83.87;14.86
23643;BME280;11998;55.788;37.572;2023-08-07T00:29:47;98601.97;;;84.30;14.83
23643;BME280;11998;55.788;37.572;2023-08-07T00:30:47;98598.91;;;84.36;14.97
23643;BME280;11998;55.788;37.572;2023-08-07T00:31:48;98601.81;;;84.73;14.69
23643;BME280;11998;55.788;37.572;2023-08-07T00:32:48;98603.06;;;85.10;14.89
23643;BME280;11998;55.788;37.572;2023-08-07T00:33:49;98605.59;;;85.19;14.69
23643;BME280;11998;55.788;37.572;2023-08-07T00:34:52;98603.59;;;85.27;14.74
23643;BME280;11998;55.788;37.572;2023-08-07T00:35:52;98617.44;;;84.93;14.90
23643;BME280;11998;55.788;37.572;2023-08-07T00:36:53;98588.31;;;83.41;15.06
23643;BME280;11998;55.788;37.572;2023-08-07T00:37:53;98606.69;;;84.90;14.76
23643;BME280;11998;55.788;37.572;2023-08-07T00:38:54;98601.66;;;84.98;14.76
23643;BME280;11998;55.788;37.572;2023-08-07T00:39:54;98603.28;;;84.99;14.71
23643;BME280;11998;55.788;37.572;2023-08-07T00:40:55;98603.66;;;83.88;15.06
23643;BME280;11998;55.788;37.572;2023-08-07T00:41:55;98601.72;;;84.09;15.03
23643;BME280;11998;55.788;37.572;2023-08-07T00:42:56;98598.41;;;84.69;14.74
23643;BME280;11998;55.788;37.572;2023-08-07T00:43:57;98588.81;;;82.55;15.12
23643;BME280;11998;55.788;37.572;2023-08-07T00:44:57;98585.47;;;83.73;15.04
23643;BME280;11998;55.788;37.572;2023-08-07T00:45:58;98589.44;;;83.81;14.94
23643;BME280;11998;55.788;37.572;2023-08-07T00:46:58;98585.44;;;83.97;14.81
23643;BME280;11998;55.788;37.572;2023-08-07T00:47:59;98612.28;;;85.52;14.77
23643;BME280;11998;55.788;37.572;2023-08-07T00:48:59;98614.34;;;85.44;14.83
23643;BME280;11998;55.788;37.572;2023-08-07T00:50:02;98612.97;;;85.84;14.76
23643;BME280;11998;55.788;37.572;2023-08-07T00:51:03;98613.06;;;85.39;14.85
23643;BME280;11998;55.788;37.572;2023-08-07T00:52:04;98606.78;;;84.52;14.87
23643;BME280;11998;55.788;37.572;2023-08-07T00:53:05;98610.91;;;85.53;14.85
23643;BME280;11998;55.788;37.572;2023-08-07T00:54:08;98606.44;;;84.56;14.88
23643;BME280;11998;55.788;37.572;2023-08-07T00:55:10;98591.94;;;83.28;15.16
23643;BME280;11998;55.788;37.572;2023-08-07T00:56:11;98598.28;;;84.05;15.07
23643;BME280;11998;55.788;37.572;2023-08-07T00:57:12;98592.31;;;82.47;15.18
23643;BME280;11998;55.788;37.572;2023-08-07T00:58:15;98590.56;;;83.53;14.97
23643;BME280;11998;55.788;37.572;2023-08-07T00:59:16;98600.63;;;84.82;14.86
23643;BME280;11998;55.788;37.572;2023-08-07T01:00:17;98596.22;;;84.00;14.89
23643;BME280;11998;55.788;37.572;2023-08-07T01:01:17;98599.00;;;85.13;14.80
23643;BME280;11998;55.788;37.572;2023-08-07T01:02:18;98599.44;;;85.83;14.82
23643;BME280;11998;55.788;37.572;2023-08-07T01:03:19;98608.41;;;86.65;14.83
23643;BME280;11998;55.788;37.572;2023-08-07T01:04:19;98611.25;;;86.36;14.85
23643;BME280;11998;55.788;37.572;2023-08-07T01:05:20;98609.75;;;83.71;15.00
23643;BME280;11998;55.788;37.572;2023-08-07T01:06:20;98598.50;;;85.22;14.90
23643;BME280;11998;55.788;37.572;2023-08-07T01:07:21;98595.53;;;84.64;14.90
23643;BME280;11998;55.788;37.572;2023-08-07T01:08:25;98588.84;;;84.58;15.09
23643;BME280;11998;55.788;37.572;2023-08-07T01:09:27;98588.03;;;85.88;14.92
23643;BME280;11998;55.788;37.572;2023-08-07T01:10:39;98596.16;;;85.87;14.69
23643;BME280;11998;55.788;37.572;2023-08-07T01:13:05;98595.34;;;85.60;14.82
23643;BME280;11998;55.788;37.572;2023-08-07T01:14:17;98586.75;;;84.21;15.01
23643;BME280;11998;55.788;37.572;2023-08-07T01:15:25;98592.16;;;85.31;14.77
23643;BME280;11998;55.788;37.572;2023-08-07T01:16:44;98581.91;;;84.17;15.04
23643;BME280;11998;55.788;37.572;2023-08-07T01:17:46;98583.66;;;85.09;14.80
23643;BME280;11998;55.788;37.572;2023-08-07T01:18:48;98575.31;;;85.08;14.87
23643;BME280;11998;55.788;37.572;2023-08-07T01:19:52;98586.53;;;85.15;14.75
23643;BME280;11998;55.788;37.572;2023-08-07T01:20:53;98572.06;;;84.09;15.07
23643;BME280;11998;55.788;37.572;2023-08-07T01:22:14;98585.28;;;84.78;15.15
23643;BME280;11998;55.788;37.572;2023-08-07T01:23:14;98574.56;;;84.05;14.95
23643;BME280;11998;55.788;37.572;2023-08-07T01:24:15;98573.41;;;84.46;14.81
23643;BME280;11998;55.788;37.572;2023-08-07T01:25:15;98579.75;;;84.88;14.72
23643;BME280;11998;55.788;37.572;2023-08-07T01:26:19;98573.78;;;84.56;15.00
23643;BME280;11998;55.788;37.572;2023-08-07T01:27:30;98569.56;;;84.51;15.10
23643;BME280;11998;55.788;37.572;2023-08-07T01:28:36;98585.31;;;85.37;14.75
23643;BME280;11998;55.788;37.572;2023-08-07T01:31:22;98566.69;;;84.27;14.93
23643;BME280;11998;55.788;37.572;2023-08-07T01:32:29;98563.25;;;83.36;14.87
23643;BME280;11998;55.788;37.572;2023-08-07T01:34:04;98575.09;;;84.73;14.78
23643;BME280;11998;55.788;37.572;2023-08-07T01:35:05;98571.16;;;84.97;15.01
23643;BME280;11998;55.788;37.572;2023-08-07T01:36:07;98577.41;;;85.13;14.95
23643;BME280;11998;55.788;37.572;2023-08-07T01:37:10;98584.75;;;84.61;15.08
23643;BME280;11998;55.788;37.572;2023-08-07T01:38:13;98571.25;;;85.37;14.88
23643;BME280;11998;55.788;37.572;2023-08-07T01:39:14;98581.38;;;85.95;14.68
23643;BME280;11998;55.788;37.572;2023-08-07T01:40:16;98582.34;;;85.50;14.89
23643;BME280;11998;55.788;37.572;2023-08-07T01:41:17;98586.75;;;85.83;14.77
23643;BME280;11998;55.788;37.572;2023-08-07T01:42:18;98580.22;;;85.18;14.66
23643;BME280;11998;55.788;37.572;2023-08-07T01:43:19;98583.16;;;83.66;15.10
23643;BME280;11998;55.788;37.572;2023-08-07T01:44:20;98573.50;;;83.84;14.98
23643;BME280;11998;55.788;37.572;2023-08-07T01:45:25;98570.94;;;84.12;14.90
23643;BME280;11998;55.788;37.572;2023-08-07T01:46:26;98567.47;;;84.46;15.00
23643;BME280;11998;55.788;37.572;2023-08-07T01:47:26;98575.03;;;85.64;14.85
23643;BME280;11998;55.788;37.572;2023-08-07T01:48:27;98569.72;;;84.40;14.87
23643;BME280;11998;55.788;37.572;2023-08-07T01:49:27;98570.03;;;84.17;14.97
23643;BME280;11998;55.788;37.572;2023-08-07T01:50:28;98558.16;;;83.99;15.03
23643;BME280;11998;55.788;37.572;2023-08-07T01:51:29;98566.81;;;84.53;15.01
23643;BME280;11998;55.788;37.572;2023-08-07T01:52:30;98568.06;;;84.58;14.88
23643;BME280;11998;55.788;37.572;2023-08-07T01:53:30;98579.44;;;84.22;14.68
23643;BME280;11998;55.788;37.572;2023-08-07T01:54:31;98554.03;;;83.21;15.15
23643;BME280;11998;55.788;37.572;2023-08-07T01:55:31;98550.13;;;83.56;15.17
23643;BME280;11998;55.788;37.572;2023-08-07T01:56:32;98551.63;;;83.19;15.07
23643;BME280;11998;55.788;37.572;2023-08-07T01:57:32;98561.88;;;83.86;14.97
23643;BME280;11998;55.788;37.572;2023-08-07T01:58:33;98563.66;;;84.13;14.83
23643;BME280;11998;55.788;37.572;2023-08-07T01:59:33;98574.44;;;84.81;14.79
23643;BME280;11998;55.788;37.572;2023-08-07T02:00:34;98573.19;;;85.61;14.76
23643;BME280;11998;55.788;37.572;2023-08-07T02:01:34;98576.91;;;85.22;14.73
23643;BME280;11998;55.788;37.572;2023-08-07T02:02:35;98575.47;;;85.55;14.86
23643;BME280;11998;55.788;37.572;2023-08-07T02:03:36;98584.69;;;86.38;14.70
23643;BME280;11998;55.788;37.572;2023-08-07T02:04:37;98590.25;;;86.42;14.85
23643;BME280;11998;55.788;37.572;2023-08-07T02:05:37;98586.81;;;86.72;14.63
23643;BME280;11998;55.788;37.572;2023-08-07T02:06:38;98585.47;;;86.73;14.62
23643;BME280;11998;55.788;37.572;2023-08-07T02:07:38;98586.59;;;86.49;14.84
23643;BME280;11998;55.788;37.572;2023-08-07T02:08:39;98586.28;;;86.05;14.91
23643;BME280;11998;55.788;37.572;2023-08-07T02:09:39;98579.31;;;86.58;14.80
23643;BME280;11998;55.788;37.572;2023-08-07T02:10:40;98579.03;;;85.67;14.86
23643;BME280;11998;55.788;37.572;2023-08-07T02:11:40;98580.91;;;86.59;14.73
23643;BME280;11998;55.788;37.572;2023-08-07T02:12:40;98593.03;;;86.40;14.94
23643;BME280;11998;55.788;37.572;2023-08-07T02:13:41;98586.47;;;87.53;14.89
23643;BME280;11998;55.788;37.572;2023-08-07T02:14:42;98591.69;;;87.61;14.67
23643;BME280;11998;55.788;37.572;2023-08-07T02:15:42;98577.00;;;85.96;14.79
23643;BME280;11998;55.788;37.572;2023-08-07T02:16:43;98590.06;;;86.82;14.86
23643;BME280;11998;55.788;37.572;2023-08-07T02:17:43;98581.28;;;85.87;14.92
23643;BME280;11998;55.788;37.572;2023-08-07T02:18:44;98590.13;;;87.67;14.81
23643;BME280;11998;55.788;37.572;2023-08-07T02:19:44;98592.25;;;88.47;14.62
23643;BME280;11998;55.788;37.572;2023-08-07T02:20:45;98595.66;;;87.99;14.82
23643;BME280;11998;55.788;37.572;2023-08-07T02:21:46;98592.72;;;87.71;14.56
23643;BME280;11998;55.788;37.572;2023-08-07T02:22:46;98585.53;;;87.30;14.64
23643;BME280;11998;55.788;37.572;2023-08-07T02:23:47;98573.38;;;86.99;14.66
23643;BME280;11998;55.788;37.572;2023-08-07T02:24:48;98589.06;;;86.79;15.17
23643;BME280;11998;55.788;37.572;2023-08-07T02:25:48;98577.09;;;86.51;14.79
23643;BME280;11998;55.788;37.572;2023-08-07T02:26:49;98564.50;;;85.37;14.85
23643;BME280;11998;55.788;37.572;2023-08-07T02:27:49;98570.84;;;85.94;14.77
23643;BME280;11998;55.788;37.572;2023-08-07T02:28:50;98574.66;;;86.28;15.02
23643;BME280;11998;55.788;37.572;2023-08-07T02:29:50;98560.16;;;86.46;14.76
23643;BME280;11998;55.788;37.572;2023-08-07T02:30:51;98580.34;;;86.81;14.70
23643;BME280;11998;55.788;37.572;2023-08-07T02:31:54;98576.59;;;86.60;14.95
23643;BME280;11998;55.788;37.572;2023-08-07T02:32:54;98577.84;;;86.30;14.81
23643;BME280;11998;55.788;37.572;2023-08-07T02:33:55;98583.69;;;86.57;14.86
23643;BME280;11998;55.788;37.572;2023-08-07T02:34:55;98582.41;;;86.31;14.77
23643;BME280;11998;55.788;37.572;2023-08-07T02:35:56;98567.56;;;86.18;14.96
23643;BME280;11998;55.788;37.572;2023-08-07T02:36:57;98572.69;;;86.65;14.99
23643;BME280;11998;55.788;37.572;2023-08-07T02:37:58;98567.94;;;85.67;15.00
23643;BME280;11998;55.788;37.572;2023-08-07T02:38:58;98566.06;;;85.91;14.95
23643;BME280;11998;55.788;37.572;2023-08-07T02:39:59;98581.66;;;86.93;14.73
23643;BME280;11998;55.788;37.572;2023-08-07T02:40:59;98571.78;;;85.89;14.88
23643;BME280;11998;55.788;37.572;2023-08-07T02:42:00;98579.91;;;86.35;14.70
23643;BME280;11998;55.788;37.572;2023-08-07T02:43:00;98580.44;;;86.13;14.77
23643;BME280;11998;55.788;37.572;2023-08-07T02:44:01;98569.69;;;85.83;14.96
23643;BME280;11998;55.788;37.572;2023-08-07T02:45:02;98565.84;;;85.36;14.82
23643;BME280;11998;55.788;37.572;2023-08-07T02:46:02;98573.13;;;86.35;14.91
23643;BME280;11998;55.788;37.572;2023-08-07T02:47:03;98559.63;;;86.00;14.79
23643;BME280;11998;55.788;37.572;2023-08-07T02:48:04;98566.06;;;85.91;14.74
23643;BME280;11998;55.788;37.572;2023-08-07T02:49:04;98566.56;;;86.50;14.80
23643;BME280;11998;55.788;37.572;2023-08-07T02:50:05;98564.72;;;85.65;14.92
23643;BME280;11998;55.788;37.572;2023-08-07T02:51:06;98565.72;;;86.28;14.93
23643;BME280;11998;55.788;37.572;2023-08-07T02:52:07;98573.94;;;87.47;14.50
23643;BME280;11998;55.788;37.572;2023-08-07T02:53:07;98569.38;;;86.21;14.65
23643;BME280;11998;55.788;37.572;2023-08-07T02:54:08;98568.59;;;85.86;15.00
23643;BME280;11998;55.788;37.572;2023-08-07T02:55:08;98569.09;;;85.64;14.86
23643;BME280;11998;55.788;37.572;2023-08-07T02:56:09;98571.28;;;86.66;14.83
23643;BME280;11998;55.788;37.572;2023-08-07T02:57:10;98566.63;;;85.10;15.00
23643;BME280;11998;55.788;37.572;2023-08-07T02:58:11;98576.41;;;85.23;14.98
23643;BME280;11998;55.788;37.572;2023-08-07T02:59:11;98565.22;;;86.58;14.73
23643;BME280;11998;55.788;37.572;2023-08-07T03:00:12;98580.91;;;87.01;14.60
23643;BME280;11998;55.788;37.572;2023-08-07T03:01:13;98567.34;;;85.42;14.84
23643;BME280;11998;55.788;37.572;2023-08-07T03:02:13;98571.53;;;86.00;14.82
23643;BME280;11998;55.788;37.572;2023-08-07T03:03:14;98568.75;;;86.49;14.96
23643;BME280;11998;55.788;37.572;2023-08-07T03:04:14;98588.84;;;86.22;14.70
23643;BME280;11998;55.788;37.572;2023-08-07T03:05:15;98568.28;;;86.24;14.93
23643;BME280;11998;55.788;37.572;2023-08-07T03:06:15;98567.38;;;86.50;14.81
23643;BME280;11998;55.788;37.572;2023-08-07T03:07:16;98573.53;;;86.18;14.56
23643;BME280;11998;55.788;37.572;2023-08-07T03:08:17;98564.88;;;86.83;14.62
23643;BME280;11998;55.788;37.572;2023-08-07T03:09:18;98569.34;;;86.48;14.87
23643;BME280;11998;55.788;37.572;2023-08-07T03:10:18;98567.31;;;86.29;14.83
23643;BME280;11998;55.788;37.572;2023-08-07T03:11:19;98567.38;;;87.49;14.58
23643;BME280;11998;55.788;37.572;2023-08-07T03:12:20;98573.78;;;87.04;14.88
23643;BME280;11998;55.788;37.572;2023-08-07T03:13:20;98576.53;;;87.59;14.66
23643;BME280;11998;55.788;37.572;2023-08-07T03:14:21;98567.47;;;85.76;14.82
23643;BME280;11998;55.788;37.572;2023-08-07T03:15:21;98561.03;;;86.54;14.66
23643;BME280;11998;55.788;37.572;2023-08-07T03:16:22;98573.53;;;86.73;14.74
23643;BME280;11998;55.788;37.572;2023-08-07T03:17:22;98567.78;;;86.20;14.89
23643;BME280;11998;55.788;37.572;2023-08-07T03:18:23;98561.19;;;85.67;15.08
23643;BME280;11998;55.788;37.572;2023-08-07T03:19:23;98550.88;;;85.41;14.83
23643;BME280;11998;55.788;37.572;2023-08-07T03:20:24;98561.91;;;86.62;14.79
23643;BME280;11998;55.788;37.572;2023-08-07T03:21:24;98556.47;;;85.18;14.84
23643;BME280;11998;55.788;37.572;2023-08-07T03:22:25;98563.50;;;86.08;14.65
23643;BME280;11998;55.788;37.572;2023-08-07T03:23:26;98568.16;;;86.51;14.96
23643;BME280;11998;55.788;37.572;2023-08-07T03:24:27;98563.25;;;86.40;14.74
23643;BME280;11998;55.788;37.572;2023-08-07T03:25:27;98557.97;;;86.25;14.81
23643;BME280;11998;55.788;37.572;2023-08-07T03:26:28;98564.25;;;85.88;14.86
23643;BME280;11998;55.788;37.572;2023-08-07T03:27:28;98554.63;;;85.02;14.87
23643;BME280;11998;55.788;37.572;2023-08-07T03:28:29;98562.44;;;86.74;14.65
23643;BME280;11998;55.788;37.572;2023-08-07T03:29:30;98560.38;;;86.27;14.52
23643;BME280;11998;55.788;37.572;2023-08-07T03:30:30;98570.66;;;87.09;14.77
23643;BME280;11998;55.788;37.572;2023-08-07T03:31:31;98554.22;;;85.38;15.23
23643;BME280;11998;55.788;37.572;2023-08-07T03:32:31;98550.31;;;85.56;14.99
23643;BME280;11998;55.788;37.572;2023-08-07T03:33:32;98560.63;;;86.15;14.80
23643;BME280;11998;55.788;37.572;2023-08-07T03:34:32;98557.63;;;85.68;14.72
23643;BME280;11998;55.788;37.572;2023-08-07T03:35:33;98553.28;;;85.56;14.76
23643;BME280;11998;55.788;37.572;2023-08-07T03:36:33;98556.53;;;86.81;14.62
23643;BME280;11998;55.788;37.572;2023-08-07T03:37:34;98553.53;;;85.45;14.75
23643;BME280;11998;55.788;37.572;2023-08-07T03:38:34;98549.84;;;84.99;14.79
23643;BME280;11998;55.788;37.572;2023-08-07T03:39:35;98547.06;;;84.56;15.08
23643;BME280;11998;55.788;37.572;2023-08-07T03:40:35;98551.09;;;86.17;14.82
23643;BME280;11998;55.788;37.572;2023-08-07T03:41:36;98549.84;;;84.99;14.97
23643;BME280;11998;55.788;37.572;2023-08-07T03:42:36;98544.56;;;84.92;14.89
23643;BME280;11998;55.788;37.572;2023-08-07T03:43:37;98535.69;;;85.31;15.00
23643;BME280;11998;55.788;37.572;2023-08-07T03:44:38;98542.50;;;84.87;14.85
23643;BME280;11998;55.788;37.572;2023-08-07T03:45:39;98553.75;;;85.47;14.92
23643;BME280;11998;55.788;37.572;2023-08-07T03:46:39;98548.28;;;85.24;14.92
23643;BME280;11998;55.788;37.572;2023-08-07T03:47:40;98550.22;;;85.48;14.88
23643;BME280;11998;55.788;37.572;2023-08-07T03:48:40;98543.19;;;85.72;14.91
23643;BME280;11998;55.788;37.572;2023-08-07T03:49:41;98542.25;;;84.02;15.03
23643;BME280;11998;55.788;37.572;2023-08-07T03:50:41;98544.50;;;85.37;14.75
23643;BME280;11998;55.788;37.572;2023-08-07T03:51:42;98559.22;;;85.69;14.88
23643;BME280;11998;55.788;37.572;2023-08-07T03:52:42;98558.78;;;85.65;14.90
23643;BME280;11998;55.788;37.572;2023-08-07T03:53:43;98564.34;;;87.13;14.52
23643;BME280;11998;55.788;37.572;2023-08-07T03:54:43;98570.97;;;87.47;14.66
23643;BME280;11998;55.788;37.572;2023-08-07T03:55:49;98576.44;;;87.36;14.63
23643;BME280;11998;55.788;37.572;2023-08-07T03:56:50;98580.41;;;88.18;14.61
23643;BME280;11998;55.788;37.572;2023-08-07T03:57:51;98595.81;;;88.45;14.83
23643;BME280;11998;55.788;37.572;2023-08-07T03:58:51;98601.16;;;89.61;14.52
23643;BME280;11998;55.788;37.572;2023-08-07T03:59:52;98600.19;;;88.44;14.52
23643;BME280;11998;55.788;37.572;2023-08-07T04:00:55;98597.06;;;89.11;14.71
23643;BME280;11998;55.788;37.572;2023-08-07T04:01:56;98594.00;;;89.49;14.40
23643;BME280;11998;55.788;37.572;2023-08-07T04:02:56;98602.72;;;89.62;14.59
23643;BME280;11998;55.788;37.572;2023-08-07T04:03:56;98595.03;;;89.92;14.68
23643;BME280;11998;55.788;37.572;2023-08-07T04:04:57;98604.34;;;91.36;14.42
23643;BME280;11998;55.788;37.572;2023-08-07T04:05:57;98608.97;;;91.29;14.33
23643;BME280;11998;55.788;37.572;2023-08-07T04:07:00;98632.47;;;93.78;14.28
23643;BME280;11998;55.788;37.572;2023-08-07T04:08:01;98620.34;;;93.00;14.31
23643;BME280;11998;55.788;37.572;2023-08-07T04:09:01;98621.84;;;93.38;14.04
23643;BME280;11998;55.788;37.572;2023-08-07T04:10:03;98623.22;;;93.18;14.20
23643;BME280;11998;55.788;37.572;2023-08-07T04:11:05;98621.56;;;93.63;14.14
23643;BME280;11998;55.788;37.572;2023-08-07T04:12:05;98627.56;;;93.44;14.29
23643;BME280;11998;55.788;37.572;2023-08-07T04:13:06;98617.09;;;93.93;14.28
23643;BME280;11998;55.788;37.572;2023-08-07T04:14:06;98619.63;;;93.29;14.22
23643;BME280;11998;55.788;37.572;2023-08-07T04:15:07;98629.91;;;94.03;14.02
23643;BME280;11998;55.788;37.572;2023-08-07T04:16:09;98615.16;;;94.07;14.37
23643;BME280;11998;55.788;37.572;2023-08-07T04:17:09;98624.09;;;95.08;14.45
23643;BME280;11998;55.788;37.572;2023-08-07T04:18:10;98629.81;;;95.47;14.36
23643;BME280;11998;55.788;37.572;2023-08-07T04:19:12;98635.25;;;95.93;14.12
23643;BME280;11998;55.788;37.572;2023-08-07T04:20:12;98644.59;;;96.54;14.05
23643;BME280;11998;55.788;37.572;2023-08-07T04:21:13;98633.19;;;95.41;14.45
23643;BME280;11998;55.788;37.572;2023-08-07T04:22:13;98632.50;;;96.54;14.04
23643;BME280;11998;55.788;37.572;2023-08-07T04:23:14;98633.25;;;96.31;13.94
23643;BME280;11998;55.788;37.572;2023-08-07T04:24:14;98635.34;;;97.73;13.98
23643;BME280;11998;55.788;37.572;2023-08-07T04:25:15;98653.47;;;99.04;13.61
23643;BME280;11998;55.788;37.572;2023-08-07T04:26:15;98645.13;;;99.48;14.00
23643;BME280;11998;55.788;37.572;2023-08-07T04:27:16;98644.13;;;98.86;14.15
23643;BME280;11998;55.788;37.572;2023-08-07T04:28:16;98629.75;;;98.32;14.06
23643;BME280;11998;55.788;37.572;2023-08-07T04:29:17;98634.44;;;99.61;13.97
23643;BME280;11998;55.788;37.572;2023-08-07T04:30:17;98639.06;;;100.23;13.96
23643;BME280;11998;55.788;37.572;2023-08-07T04:31:18;98637.28;;;100.99;13.38
23643;BME280;11998;55.788;37.572;2023-08-07T04:32:18;98641.13;;;102.64;13.65
23643;BME280;11998;55.788;37.572;2023-08-07T04:33:20;98650.06;;;103.89;13.31
23643;BME280;11998;55.788;37.572;2023-08-07T04:34:20;98641.25;;;104.49;13.40
23643;BME280;11998;55.788;37.572;2023-08-07T04:35:21;98644.03;;;105.85;13.37
23643;BME280;11998;55.788;37.572;2023-08-07T04:36:21;98640.34;;;105.93;13.36
23643;BME280;11998;55.788;37.572;2023-08-07T04:37:22;98632.31;;;105.75;13.76
23643;BME280;11998;55.788;37.572;2023-08-07T04:38:22;98634.56;;;106.81;13.26
23643;BME280;11998;55.788;37.572;2023-08-07T04:39:23;98625.81;;;106.63;13.26
23643;BME280;11998;55.788;37.572;2023-08-07T04:40:23;98615.25;;;106.73;13.20
23643;BME280;11998;55.788;37.572;2023-08-07T04:41:24;98595.41;;;104.49;13.84
23643;BME280;11998;55.788;37.572;2023-08-07T04:42:24;98598.69;;;105.77;13.61
23643;BME280;11998;55.788;37.572;2023-08-07T04:43:25;98596.50;;;106.16;13.43
23643;BME280;11998;55.788;37.572;2023-08-07T04:44:26;98602.09;;;107.08;13.64
23643;BME280;11998;55.788;37.572;2023-08-07T04:45:27;98591.03;;;107.33;13.67
23643;BME280;11998;55.788;37.572;2023-08-07T04:46:27;98588.34;;;106.67;13.13
23643;BME280;11998;55.788;37.572;2023-08-07T04:47:28;98584.53;;;106.68;13.71
23643;BME280;11998;55.788;37.572;2023-08-07T04:48:29;98581.03;;;106.86;13.78
23643;BME280;11998;55.788;37.572;2023-08-07T04:49:29;98580.75;;;107.67;13.02
23643;BME280;11998;55.788;37.572;2023-08-07T04:50:30;98575.31;;;106.66;13.39
23643;BME280;11998;55.788;37.572;2023-08-07T04:51:30;98577.63;;;107.61;13.47
23643;BME280;11998;55.788;37.572;2023-08-07T04:52:31;98579.19;;;107.62;13.22
23643;BME280;11998;55.788;37.572;2023-08-07T04:53:32;98548.38;;;104.88;13.61
23643;BME280;11998;55.788;37.572;2023-08-07T04:54:32;98532.72;;;103.46;13.72
23643;BME280;11998;55.788;37.572;2023-08-07T04:55:33;98531.44;;;103.77;13.50
23643;BME280;11998;55.788;37.572;2023-08-07T04:56:33;98537.09;;;104.97;13.26
23643;BME280;11998;55.788;37.572;2023-08-07T04:57:34;98542.50;;;104.68;13.48
23643;BME280;11998;55.788;37.572;2023-08-07T04:58:34;98541.53;;;105.52;13.06
23643;BME280;11998;55.788;37.572;2023-08-07T04:59:35;98548.31;;;105.16;13.09
23643;BME280;11998;55.788;37.572;2023-08-07T05:00:36;98547.34;;;105.40;13.67
23643;BME280;11998;55.788;37.572;2023-08-07T05:01:36;98553.34;;;106.80;13.47
23643;BME280;11998;55.788;37.572;2023-08-07T05:02:37;98558.94;;;107.97;13.33
23643;BME280;11998;55.788;37.572;2023-08-07T05:03:38;98569.56;;;108.56;13.10
23643;BME280;11998;55.788;37.572;2023-08-07T05:04:38;98567.66;;;108.23;13.35
23643;BME280;11998;55.788;37.572;2023-08-07T05:05:39;98540.38;;;106.41;13.48
23643;BME280;11998;55.788;37.572;2023-08-07T05:06:39;98539.19;;;107.58;13.29
23643;BME280;11998;55.788;37.572;2023-08-07T05:07:41;98556.97;;;109.13;13.14
23643;BME280;11998;55.788;37.572;2023-08-07T05:08:41;98536.31;;;105.93;13.54
23643;BME280;11998;55.788;37.572;2023-08-07T05:09:42;98551.44;;;107.56;13.58
23643;BME280;11998;55.788;37.572;2023-08-07T05:10:42;98548.25;;;108.81;13.16
23643;BME280;11998;55.788;37.572;2023-08-07T05:11:43;98544.50;;;107.51;13.58
23643;BME280;11998;55.788;37.572;2023-08-07T05:12:44;98529.91;;;107.49;13.28
23643;BME280;11998;55.788;37.572;2023-08-07T05:13:44;98530.59;;;106.11;13.19
23643;BME280;11998;55.788;37.572;2023-08-07T05:14:45;98537.66;;;107.54;13.37
23643;BME280;11998;55.788;37.572;2023-08-07T05:15:47;98533.22;;;107.68;13.22
23643;BME280;11998;55.788;37.572;2023-08-07T05:16:48;98538.69;;;108.40;13.09
23643;BME280;11998;55.788;37.572;2023-08-07T05:17:49;98544.69;;;108.24;13.08
23643;BME280;11998;55.788;37.572;2023-08-07T05:18:50;98515.59;;;106.27;13.80
23643;BME280;11998;55.788;37.572;2023-08-07T05:19:50;98522.72;;;106.80;13.10
23643;BME280;11998;55.788;37.572;2023-08-07T05:20:51;98508.81;;;105.95;13.45
23643;BME280;11998;55.788;37.572;2023-08-07T05:21:51;98505.25;;;106.08;13.40